sensor_id;sensor_type;location;lat;lon;timestamp;P1;durP1;ratioP1;P2;durP2;ratioP2
52396;SDS011;38322;53.108;6.308;2023-02-15T06:02:43;72.78;;;45.42;;
52396;SDS011;38322;53.108;6.308;2023-02-15T06:05:09;76.25;;;46.60;;
52396;SDS011;38322;53.108;6.308;2023-02-15T06:07:34;74.20;;;44.50;;
52396;SDS011;38322;53.108;6.308;2023-02-15T06:10:00;71.47;;;45.85;;
52396;SDS011;38322;53.108;6.308;2023-02-15T06:12:26;70.97;;;44.22;;
52396;SDS011;38322;53.108;6.308;2023-02-15T06:14:52;69.68;;;44.38;;
52396;SDS011;38322;53.108;6.308;2023-02-15T06:17:18;67.55;;;43.47;;
52396;SDS011;38322;53.108;6.308;2023-02-15T06:19:44;71.55;;;44.83;;
52396;SDS011;38322;53.108;6.308;2023-02-15T06:22:09;74.85;;;42.83;;
52396;SDS011;38322;53.108;6.308;2023-02-15T06:24:35;75.05;;;47.08;;
52396;SDS011;38322;53.108;6.308;2023-02-15T06:27:01;71.00;;;42.20;;
52396;SDS011;38322;53.108;6.308;2023-02-15T06:29:27;67.53;;;42.92;;
52396;SDS011;38322;53.108;6.308;2023-02-15T06:31:53;68.57;;;42.28;;
52396;SDS011;38322;53.108;6.308;2023-02-15T06:34:18;75.57;;;43.22;;
52396;SDS011;38322;53.108;6.308;2023-02-15T06:36:44;68.45;;;41.70;;
52396;SDS011;38322;53.108;6.308;2023-02-15T06:39:10;65.85;;;40.80;;
52396;SDS011;38322;53.108;6.308;2023-02-15T06:41:36;62.85;;;38.53;;
52396;SDS011;38322;53.108;6.308;2023-02-15T06:44:02;60.05;;;39.20;;
52396;SDS011;38322;53.108;6.308;2023-02-15T06:46:28;60.20;;;38.30;;
52396;SDS011;38322;53.108;6.308;2023-02-15T06:48:53;57.50;;;37.55;;
52396;SDS011;38322;53.108;6.308;2023-02-15T06:51:19;53.22;;;38.13;;
52396;SDS011;38322;53.108;6.308;2023-02-15T06:53:45;53.20;;;35.83;;
52396;SDS011;38322;53.108;6.308;2023-02-15T06:56:11;52.63;;;36.58;;
52396;SDS011;38322;53.108;6.308;2023-02-15T06:58:38;55.50;;;34.90;;
52396;SDS011;38322;53.108;6.308;2023-02-15T07:01:05;60.25;;;37.47;;
52396;SDS011;38322;53.108;6.308;2023-02-15T07:03:31;51.85;;;34.00;;
52396;SDS011;38322;53.108;6.308;2023-02-15T07:05:58;56.90;;;35.78;;
52396;SDS011;38322;53.108;6.308;2023-02-15T07:08:25;50.85;;;34.60;;
52396;SDS011;38322;53.108;6.308;2023-02-15T07:10:52;52.30;;;32.88;;
52396;SDS011;38322;53.108;6.308;2023-02-15T07:13:19;47.33;;;31.30;;
52396;SDS011;38322;53.108;6.308;2023-02-15T07:15:46;50.17;;;32.38;;
52396;SDS011;38322;53.108;6.308;2023-02-15T07:18:12;48.00;;;33.70;;
52396;SDS011;38322;53.108;6.308;2023-02-15T07:20:38;51.85;;;35.33;;
52396;SDS011;38322;53.108;6.308;2023-02-15T07:23:07;52.13;;;34.80;;
52396;SDS011;38322;53.108;6.308;2023-02-15T07:25:33;48.90;;;35.30;;
52396;SDS011;38322;53.108;6.308;2023-02-15T07:28:01;53.10;;;34.67;;
52396;SDS011;38322;53.108;6.308;2023-02-15T07:30:28;49.63;;;33.50;;
52396;SDS011;38322;53.108;6.308;2023-02-15T07:32:55;46.28;;;33.55;;
52396;SDS011;38322;53.108;6.308;2023-02-15T07:35:47;48.05;;;33.38;;
52396;SDS011;38322;53.108;6.308;2023-02-15T07:38:15;51.92;;;34.50;;
52396;SDS011;38322;53.108;6.308;2023-02-15T07:40:41;52.47;;;32.80;;
52396;SDS011;38322;53.108;6.308;2023-02-15T07:43:07;51.75;;;33.35;;
52396;SDS011;38322;53.108;6.308;2023-02-15T07:45:33;44.80;;;31.80;;
52396;SDS011;38322;53.108;6.308;2023-02-15T07:48:01;51.30;;;34.97;;
52396;SDS011;38322;53.108;6.308;2023-02-15T07:50:27;46.08;;;31.38;;
52396;SDS011;38322;53.108;6.308;2023-02-15T07:52:53;52.30;;;34.42;;
52396;SDS011;38322;53.108;6.308;2023-02-15T07:55:19;46.72;;;33.78;;
52396;SDS011;38322;53.108;6.308;2023-02-15T07:57:45;48.92;;;30.60;;
52396;SDS011;38322;53.108;6.308;2023-02-15T08:00:13;46.90;;;32.67;;
52396;SDS011;38322;53.108;6.308;2023-02-15T08:02:40;54.85;;;34.25;;
52396;SDS011;38322;53.108;6.308;2023-02-15T08:05:06;47.17;;;30.88;;
52396;SDS011;38322;53.108;6.308;2023-02-15T08:07:33;46.72;;;33.65;;
52396;SDS011;38322;53.108;6.308;2023-02-15T08:09:58;42.80;;;31.25;;
52396;SDS011;38322;53.108;6.308;2023-02-15T08:12:26;46.85;;;31.08;;
52396;SDS011;38322;53.108;6.308;2023-02-15T08:14:52;48.20;;;33.65;;
52396;SDS011;38322;53.108;6.308;2023-02-15T08:17:18;51.47;;;33.25;;
52396;SDS011;38322;53.108;6.308;2023-02-15T08:19:44;46.58;;;32.40;;
52396;SDS011;38322;53.108;6.308;2023-02-15T08:22:12;50.33;;;31.35;;
52396;SDS011;38322;53.108;6.308;2023-02-15T08:24:39;44.38;;;30.77;;
52396;SDS011;38322;53.108;6.308;2023-02-15T08:27:06;45.13;;;31.65;;
52396;SDS011;38322;53.108;6.308;2023-02-15T08:29:34;42.65;;;31.67;;
52396;SDS011;38322;53.108;6.308;2023-02-15T08:32:06;43.40;;;32.55;;
52396;SDS011;38322;53.108;6.308;2023-02-15T08:34:35;41.25;;;29.77;;
52396;SDS011;38322;53.108;6.308;2023-02-15T08:37:03;43.58;;;29.77;;
52396;SDS011;38322;53.108;6.308;2023-02-15T08:39:31;46.58;;;29.35;;
52396;SDS011;38322;53.108;6.308;2023-02-15T08:41:57;42.47;;;30.40;;
52396;SDS011;38322;53.108;6.308;2023-02-15T08:44:23;50.00;;;33.25;;
52396;SDS011;38322;53.108;6.308;2023-02-15T08:46:49;46.03;;;32.70;;
52396;SDS011;38322;53.108;6.308;2023-02-15T08:49:16;45.70;;;31.08;;
52396;SDS011;38322;53.108;6.308;2023-02-15T08:51:44;45.75;;;31.08;;
52396;SDS011;38322;53.108;6.308;2023-02-15T08:54:12;48.50;;;31.67;;
52396;SDS011;38322;53.108;6.308;2023-02-15T08:56:40;47.58;;;30.48;;
52396;SDS011;38322;53.108;6.308;2023-02-15T08:59:11;49.33;;;31.58;;
52396;SDS011;38322;53.108;6.308;2023-02-15T09:01:39;46.47;;;31.42;;
52396;SDS011;38322;53.108;6.308;2023-02-15T09:04:05;45.88;;;31.55;;
52396;SDS011;38322;53.108;6.308;2023-02-15T09:06:38;46.83;;;31.33;;
52396;SDS011;38322;53.108;6.308;2023-02-15T09:09:05;47.97;;;32.78;;
52396;SDS011;38322;53.108;6.308;2023-02-15T09:11:34;42.90;;;31.45;;
52396;SDS011;38322;53.108;6.308;2023-02-15T09:14:04;49.13;;;33.05;;
52396;SDS011;38322;53.108;6.308;2023-02-15T09:16:33;47.40;;;31.38;;
52396;SDS011;38322;53.108;6.308;2023-02-15T09:19:01;45.42;;;32.33;;
52396;SDS011;38322;53.108;6.308;2023-02-15T09:21:27;45.00;;;31.42;;
52396;SDS011;38322;53.108;6.308;2023-02-15T09:23:57;42.83;;;29.58;;
52396;SDS011;38322;53.108;6.308;2023-02-15T09:26:26;49.38;;;33.08;;
52396;SDS011;38322;53.108;6.308;2023-02-15T09:28:55;48.58;;;33.92;;
52396;SDS011;38322;53.108;6.308;2023-02-15T09:31:23;48.80;;;35.40;;
52396;SDS011;38322;53.108;6.308;2023-02-15T09:33:50;50.03;;;35.58;;
52396;SDS011;38322;53.108;6.308;2023-02-15T09:36:17;52.22;;;34.72;;
52396;SDS011;38322;53.108;6.308;2023-02-15T09:38:45;47.75;;;33.95;;
52396;SDS011;38322;53.108;6.308;2023-02-15T09:43:46;46.70;;;30.88;;
52396;SDS011;38322;53.108;6.308;2023-02-15T09:48:52;48.80;;;31.83;;
52396;SDS011;38322;53.108;6.308;2023-02-15T09:54:15;45.13;;;31.65;;
52396;SDS011;38322;53.108;6.308;2023-02-15T10:04:18;47.22;;;33.67;;
52396;SDS011;38322;53.108;6.308;2023-02-15T10:07:18;53.17;;;36.70;;
52396;SDS011;38322;53.108;6.308;2023-02-15T10:10:09;50.58;;;33.65;;
52396;SDS011;38322;53.108;6.308;2023-02-15T10:18:24;45.97;;;31.58;;
52396;SDS011;38322;53.108;6.308;2023-02-15T10:23:39;48.67;;;35.10;;
52396;SDS011;38322;53.108;6.308;2023-02-15T10:31:29;49.45;;;33.58;;
52396;SDS011;38322;53.108;6.308;2023-02-15T10:39:34;51.92;;;34.50;;
52396;SDS011;38322;53.108;6.308;2023-02-15T10:52:42;51.42;;;37.38;;
52396;SDS011;38322;53.108;6.308;2023-02-15T10:55:27;53.53;;;34.88;;
52396;SDS011;38322;53.108;6.308;2023-02-15T10:58:00;54.90;;;35.53;;
52396;SDS011;38322;53.108;6.308;2023-02-15T11:00:36;46.67;;;33.22;;
52396;SDS011;38322;53.108;6.308;2023-02-15T11:08:40;50.97;;;35.88;;
52396;SDS011;38322;53.108;6.308;2023-02-15T11:11:10;52.70;;;32.83;;
52396;SDS011;38322;53.108;6.308;2023-02-15T11:13:44;50.63;;;33.58;;
52396;SDS011;38322;53.108;6.308;2023-02-15T11:16:14;55.40;;;35.25;;
52396;SDS011;38322;53.108;6.308;2023-02-15T11:18:51;55.33;;;35.90;;
52396;SDS011;38322;53.108;6.308;2023-02-15T11:21:31;44.97;;;33.00;;
52396;SDS011;38322;53.108;6.308;2023-02-15T11:24:08;51.25;;;35.45;;
52396;SDS011;38322;53.108;6.308;2023-02-15T11:26:40;49.88;;;34.33;;
52396;SDS011;38322;53.108;6.308;2023-02-15T11:29:17;47.33;;;30.13;;
52396;SDS011;38322;53.108;6.308;2023-02-15T11:32:12;48.22;;;33.92;;
52396;SDS011;38322;53.108;6.308;2023-02-15T11:34:45;49.95;;;32.55;;
52396;SDS011;38322;53.108;6.308;2023-02-15T11:37:15;44.40;;;29.70;;
52396;SDS011;38322;53.108;6.308;2023-02-15T11:39:45;48.47;;;31.88;;
52396;SDS011;38322;53.108;6.308;2023-02-15T11:42:17;48.67;;;32.70;;
52396;SDS011;38322;53.108;6.308;2023-02-15T11:44:56;49.42;;;35.05;;
52396;SDS011;38322;53.108;6.308;2023-02-15T11:47:27;49.97;;;31.15;;
52396;SDS011;38322;53.108;6.308;2023-02-15T11:49:53;49.92;;;33.60;;
52396;SDS011;38322;53.108;6.308;2023-02-15T11:52:19;52.90;;;35.55;;
52396;SDS011;38322;53.108;6.308;2023-02-15T11:54:46;53.88;;;34.60;;
52396;SDS011;38322;53.108;6.308;2023-02-15T12:00:10;45.63;;;28.52;;
52396;SDS011;38322;53.108;6.308;2023-02-15T12:02:46;52.17;;;32.83;;
52396;SDS011;38322;53.108;6.308;2023-02-15T12:05:19;53.78;;;33.72;;
52396;SDS011;38322;53.108;6.308;2023-02-15T12:07:52;57.85;;;33.75;;
52396;SDS011;38322;53.108;6.308;2023-02-15T12:10:27;54.28;;;31.02;;
52396;SDS011;38322;53.108;6.308;2023-02-15T12:15:38;53.38;;;34.92;;
52396;SDS011;38322;53.108;6.308;2023-02-15T12:18:16;55.85;;;36.67;;
52396;SDS011;38322;53.108;6.308;2023-02-15T12:20:46;58.10;;;37.15;;
52396;SDS011;38322;53.108;6.308;2023-02-15T12:23:14;59.55;;;37.72;;
52396;SDS011;38322;53.108;6.308;2023-02-15T12:25:41;49.88;;;35.00;;
52396;SDS011;38322;53.108;6.308;2023-02-15T12:28:29;57.03;;;37.67;;
52396;SDS011;38322;53.108;6.308;2023-02-15T12:30:58;52.53;;;33.72;;
52396;SDS011;38322;53.108;6.308;2023-02-15T12:39:22;54.08;;;35.00;;
52396;SDS011;38322;53.108;6.308;2023-02-15T12:41:38;52.88;;;35.17;;
52396;SDS011;38322;53.108;6.308;2023-02-15T12:44:18;53.08;;;32.47;;
52396;SDS011;38322;53.108;6.308;2023-02-15T12:46:56;54.33;;;34.22;;
52396;SDS011;38322;53.108;6.308;2023-02-15T12:49:33;51.38;;;31.33;;
52396;SDS011;38322;53.108;6.308;2023-02-15T12:52:02;57.07;;;35.33;;
52396;SDS011;38322;53.108;6.308;2023-02-15T12:54:39;50.75;;;32.10;;
52396;SDS011;38322;53.108;6.308;2023-02-15T12:57:17;57.50;;;36.33;;
52396;SDS011;38322;53.108;6.308;2023-02-15T12:59:47;53.05;;;32.53;;
52396;SDS011;38322;53.108;6.308;2023-02-15T13:02:18;46.67;;;29.98;;
52396;SDS011;38322;53.108;6.308;2023-02-15T13:04:48;45.35;;;31.60;;
52396;SDS011;38322;53.108;6.308;2023-02-15T13:07:15;46.92;;;31.52;;
52396;SDS011;38322;53.108;6.308;2023-02-15T13:09:41;54.17;;;33.85;;
52396;SDS011;38322;53.108;6.308;2023-02-15T13:12:10;49.38;;;30.60;;
52396;SDS011;38322;53.108;6.308;2023-02-15T13:14:43;54.92;;;30.45;;
52396;SDS011;38322;53.108;6.308;2023-02-15T13:17:11;49.40;;;32.05;;
52396;SDS011;38322;53.108;6.308;2023-02-15T13:19:46;49.38;;;29.60;;
52396;SDS011;38322;53.108;6.308;2023-02-15T13:22:24;52.13;;;30.83;;
52396;SDS011;38322;53.108;6.308;2023-02-15T13:24:56;49.40;;;32.08;;
52396;SDS011;38322;53.108;6.308;2023-02-15T13:27:26;55.75;;;31.02;;
52396;SDS011;38322;53.108;6.308;2023-02-15T13:30:00;46.92;;;27.90;;
52396;SDS011;38322;53.108;6.308;2023-02-15T13:32:36;46.78;;;30.20;;
52396;SDS011;38322;53.108;6.308;2023-02-15T13:35:09;49.13;;;29.77;;
52396;SDS011;38322;53.108;6.308;2023-02-15T13:42:41;47.60;;;30.73;;
52396;SDS011;38322;53.108;6.308;2023-02-15T13:45:30;49.60;;;28.67;;
52396;SDS011;38322;53.108;6.308;2023-02-15T13:48:08;46.17;;;29.65;;
52396;SDS011;38322;53.108;6.308;2023-02-15T13:51:01;44.95;;;30.38;;
52396;SDS011;38322;53.108;6.308;2023-02-15T13:56:26;40.22;;;29.17;;
52396;SDS011;38322;53.108;6.308;2023-02-15T13:59:21;43.80;;;27.65;;
52396;SDS011;38322;53.108;6.308;2023-02-15T14:04:25;42.70;;;27.63;;
52396;SDS011;38322;53.108;6.308;2023-02-15T14:07:09;42.83;;;29.17;;
52396;SDS011;38322;53.108;6.308;2023-02-15T14:12:26;46.90;;;29.25;;
52396;SDS011;38322;53.108;6.308;2023-02-15T14:20:57;46.78;;;28.30;;
52396;SDS011;38322;53.108;6.308;2023-02-15T14:26:21;39.65;;;27.13;;
52396;SDS011;38322;53.108;6.308;2023-02-15T14:31:46;41.03;;;25.27;;
52396;SDS011;38322;53.108;6.308;2023-02-15T14:34:18;46.15;;;28.00;;
52396;SDS011;38322;53.108;6.308;2023-02-15T14:37:02;41.78;;;27.65;;
52396;SDS011;38322;53.108;6.308;2023-02-15T14:39:41;42.72;;;25.08;;
52396;SDS011;38322;53.108;6.308;2023-02-15T15:16:25;46.33;;;28.85;;
52396;SDS011;38322;53.108;6.308;2023-02-15T15:18:54;54.85;;;32.75;;
52396;SDS011;38322;53.108;6.308;2023-02-15T15:32:46;48.78;;;31.17;;
52396;SDS011;38322;53.108;6.308;2023-02-15T15:35:23;47.13;;;31.42;;
52396;SDS011;38322;53.108;6.308;2023-02-15T15:47:33;49.35;;;30.65;;
52396;SDS011;38322;53.108;6.308;2023-02-15T15:50:13;53.05;;;31.42;;
52396;SDS011;38322;53.108;6.308;2023-02-15T15:52:44;49.60;;;30.63;;
52396;SDS011;38322;53.108;6.308;2023-02-15T15:55:15;47.55;;;31.67;;
52396;SDS011;38322;53.108;6.308;2023-02-15T15:57:45;46.85;;;30.38;;
52396;SDS011;38322;53.108;6.308;2023-02-15T16:02:52;49.70;;;32.17;;
52396;SDS011;38322;53.108;6.308;2023-02-15T16:05:18;46.35;;;30.80;;
52396;SDS011;38322;53.108;6.308;2023-02-15T16:07:45;50.75;;;31.67;;
52396;SDS011;38322;53.108;6.308;2023-02-15T16:12:48;52.22;;;33.03;;
52396;SDS011;38322;53.108;6.308;2023-02-15T16:15:17;42.55;;;32.10;;
52396;SDS011;38322;53.108;6.308;2023-02-15T16:17:45;46.35;;;31.25;;
52396;SDS011;38322;53.108;6.308;2023-02-15T16:20:23;47.00;;;29.58;;
52396;SDS011;38322;53.108;6.308;2023-02-15T16:23:06;53.10;;;32.15;;
52396;SDS011;38322;53.108;6.308;2023-02-15T16:25:47;53.97;;;33.27;;
52396;SDS011;38322;53.108;6.308;2023-02-15T16:28:21;48.47;;;31.40;;
52396;SDS011;38322;53.108;6.308;2023-02-15T16:30:54;49.35;;;30.75;;
52396;SDS011;38322;53.108;6.308;2023-02-15T16:33:35;43.58;;;30.70;;
52396;SDS011;38322;53.108;6.308;2023-02-15T16:36:02;45.55;;;32.25;;
52396;SDS011;38322;53.108;6.308;2023-02-15T16:41:14;46.35;;;30.10;;
52396;SDS011;38322;53.108;6.308;2023-02-15T16:43:43;45.40;;;32.33;;
52396;SDS011;38322;53.108;6.308;2023-02-15T16:46:15;44.38;;;31.63;;
52396;SDS011;38322;53.108;6.308;2023-02-15T16:48:43;44.88;;;29.83;;
52396;SDS011;38322;53.108;6.308;2023-02-15T16:51:18;51.67;;;34.08;;
52396;SDS011;38322;53.108;6.308;2023-02-15T16:53:47;48.28;;;31.63;;
52396;SDS011;38322;53.108;6.308;2023-02-15T16:56:13;44.35;;;33.05;;
52396;SDS011;38322;53.108;6.308;2023-02-15T16:58:42;50.80;;;31.48;;
52396;SDS011;38322;53.108;6.308;2023-02-15T17:01:11;49.20;;;36.45;;
52396;SDS011;38322;53.108;6.308;2023-02-15T17:03:39;49.03;;;33.03;;
52396;SDS011;38322;53.108;6.308;2023-02-15T17:06:25;48.83;;;34.50;;
52396;SDS011;38322;53.108;6.308;2023-02-15T17:09:02;45.78;;;33.47;;
52396;SDS011;38322;53.108;6.308;2023-02-15T17:11:35;55.25;;;34.08;;
52396;SDS011;38322;53.108;6.308;2023-02-15T17:16:33;47.20;;;31.23;;
52396;SDS011;38322;53.108;6.308;2023-02-15T17:19:14;52.17;;;32.58;;
52396;SDS011;38322;53.108;6.308;2023-02-15T17:21:54;52.42;;;33.90;;
52396;SDS011;38322;53.108;6.308;2023-02-15T17:26:54;47.85;;;33.47;;
52396;SDS011;38322;53.108;6.308;2023-02-15T17:31:58;55.42;;;34.17;;
52396;SDS011;38322;53.108;6.308;2023-02-15T17:34:44;52.97;;;34.35;;
52396;SDS011;38322;53.108;6.308;2023-02-15T17:37:13;52.25;;;35.83;;
52396;SDS011;38322;53.108;6.308;2023-02-15T17:39:50;59.13;;;36.40;;
52396;SDS011;38322;53.108;6.308;2023-02-15T17:42:15;49.95;;;32.88;;
52396;SDS011;38322;53.108;6.308;2023-02-15T17:44:41;55.67;;;34.53;;
52396;SDS011;38322;53.108;6.308;2023-02-15T17:47:09;50.92;;;33.42;;
52396;SDS011;38322;53.108;6.308;2023-02-15T17:49:42;51.58;;;35.50;;
52396;SDS011;38322;53.108;6.308;2023-02-15T17:52:11;52.40;;;34.50;;
52396;SDS011;38322;53.108;6.308;2023-02-15T17:54:39;51.90;;;33.30;;
52396;SDS011;38322;53.108;6.308;2023-02-15T17:57:24;48.78;;;34.45;;
52396;SDS011;38322;53.108;6.308;2023-02-15T17:59:51;55.20;;;35.08;;
52396;SDS011;38322;53.108;6.308;2023-02-15T18:02:35;54.53;;;35.80;;
52396;SDS011;38322;53.108;6.308;2023-02-15T18:05:20;51.80;;;34.47;;
52396;SDS011;38322;53.108;6.308;2023-02-15T18:08:08;56.75;;;33.40;;
52396;SDS011;38322;53.108;6.308;2023-02-15T18:10:56;48.40;;;32.27;;
52396;SDS011;38322;53.108;6.308;2023-02-15T18:13:41;51.13;;;34.00;;
52396;SDS011;38322;53.108;6.308;2023-02-15T18:16:10;52.47;;;34.40;;
52396;SDS011;38322;53.108;6.308;2023-02-15T18:18:39;52.85;;;37.15;;
52396;SDS011;38322;53.108;6.308;2023-02-15T18:21:05;58.42;;;37.83;;
52396;SDS011;38322;53.108;6.308;2023-02-15T18:23:32;47.40;;;32.15;;
52396;SDS011;38322;53.108;6.308;2023-02-15T18:25:58;51.85;;;34.10;;
52396;SDS011;38322;53.108;6.308;2023-02-15T18:28:24;51.22;;;36.28;;
52396;SDS011;38322;53.108;6.308;2023-02-15T18:30:50;55.67;;;38.65;;
52396;SDS011;38322;53.108;6.308;2023-02-15T18:33:24;55.28;;;37.40;;
52396;SDS011;38322;53.108;6.308;2023-02-15T18:35:58;53.53;;;35.35;;
52396;SDS011;38322;53.108;6.308;2023-02-15T18:38:26;58.22;;;36.88;;
52396;SDS011;38322;53.108;6.308;2023-02-15T18:40:52;58.58;;;36.28;;
52396;SDS011;38322;53.108;6.308;2023-02-15T18:43:18;52.58;;;35.65;;
52396;SDS011;38322;53.108;6.308;2023-02-15T18:45:43;59.38;;;35.50;;
52396;SDS011;38322;53.108;6.308;2023-02-15T18:48:09;61.35;;;38.47;;
52396;SDS011;38322;53.108;6.308;2023-02-15T18:50:36;55.83;;;37.17;;
52396;SDS011;38322;53.108;6.308;2023-02-15T18:53:02;56.40;;;37.25;;
52396;SDS011;38322;53.108;6.308;2023-02-15T18:55:30;57.35;;;37.67;;
52396;SDS011;38322;53.108;6.308;2023-02-15T18:57:57;60.20;;;37.83;;
52396;SDS011;38322;53.108;6.308;2023-02-15T19:00:25;63.70;;;38.10;;
52396;SDS011;38322;53.108;6.308;2023-02-15T19:02:53;54.92;;;38.75;;
52396;SDS011;38322;53.108;6.308;2023-02-15T19:05:19;59.70;;;40.05;;
52396;SDS011;38322;53.108;6.308;2023-02-15T19:07:46;63.25;;;40.10;;
52396;SDS011;38322;53.108;6.308;2023-02-15T19:10:17;58.53;;;39.15;;
52396;SDS011;38322;53.108;6.308;2023-02-15T19:15:13;57.45;;;36.17;;
52396;SDS011;38322;53.108;6.308;2023-02-15T19:17:40;56.55;;;38.47;;
52396;SDS011;38322;53.108;6.308;2023-02-15T19:20:08;66.68;;;42.65;;
52396;SDS011;38322;53.108;6.308;2023-02-15T19:22:41;53.50;;;35.38;;
52396;SDS011;38322;53.108;6.308;2023-02-15T19:25:12;65.47;;;40.58;;
52396;SDS011;38322;53.108;6.308;2023-02-15T19:27:42;59.47;;;38.15;;
52396;SDS011;38322;53.108;6.308;2023-02-15T19:30:14;61.75;;;40.33;;
52396;SDS011;38322;53.108;6.308;2023-02-15T19:32:43;62.58;;;39.10;;
52396;SDS011;38322;53.108;6.308;2023-02-15T19:35:13;61.65;;;40.17;;
52396;SDS011;38322;53.108;6.308;2023-02-15T19:37:42;61.58;;;40.40;;
52396;SDS011;38322;53.108;6.308;2023-02-15T19:40:16;62.47;;;41.70;;
52396;SDS011;38322;53.108;6.308;2023-02-15T19:42:48;65.35;;;39.35;;
52396;SDS011;38322;53.108;6.308;2023-02-15T19:45:15;66.47;;;42.60;;
52396;SDS011;38322;53.108;6.308;2023-02-15T19:47:43;71.85;;;43.63;;
52396;SDS011;38322;53.108;6.308;2023-02-15T19:50:16;67.55;;;42.63;;
52396;SDS011;38322;53.108;6.308;2023-02-15T19:52:43;58.55;;;37.92;;
52396;SDS011;38322;53.108;6.308;2023-02-15T19:55:15;67.22;;;44.28;;
52396;SDS011;38322;53.108;6.308;2023-02-15T19:57:52;66.30;;;41.13;;
52396;SDS011;38322;53.108;6.308;2023-02-15T20:00:19;64.07;;;41.60;;
52396;SDS011;38322;53.108;6.308;2023-02-15T20:02:47;64.55;;;41.33;;
52396;SDS011;38322;53.108;6.308;2023-02-15T20:05:13;68.38;;;42.97;;
52396;SDS011;38322;53.108;6.308;2023-02-15T20:07:40;62.72;;;44.95;;
52396;SDS011;38322;53.108;6.308;2023-02-15T20:10:17;66.40;;;42.40;;
52396;SDS011;38322;53.108;6.308;2023-02-15T20:12:46;67.80;;;42.33;;
52396;SDS011;38322;53.108;6.308;2023-02-15T20:15:21;67.50;;;44.90;;
52396;SDS011;38322;53.108;6.308;2023-02-15T20:17:56;66.22;;;42.88;;
52396;SDS011;38322;53.108;6.308;2023-02-15T20:20:27;61.33;;;42.17;;
52396;SDS011;38322;53.108;6.308;2023-02-15T20:22:58;64.22;;;41.15;;
52396;SDS011;38322;53.108;6.308;2023-02-15T20:25:25;63.13;;;42.25;;
52396;SDS011;38322;53.108;6.308;2023-02-15T20:27:53;63.15;;;42.08;;
52396;SDS011;38322;53.108;6.308;2023-02-15T20:30:21;67.85;;;45.25;;
52396;SDS011;38322;53.108;6.308;2023-02-15T20:32:48;64.63;;;43.83;;
52396;SDS011;38322;53.108;6.308;2023-02-15T20:35:15;67.25;;;42.42;;
52396;SDS011;38322;53.108;6.308;2023-02-15T20:37:44;72.97;;;45.15;;
52396;SDS011;38322;53.108;6.308;2023-02-15T20:40:17;66.75;;;43.63;;
52396;SDS011;38322;53.108;6.308;2023-02-15T20:42:45;63.33;;;42.78;;
52396;SDS011;38322;53.108;6.308;2023-02-15T20:45:19;75.13;;;48.33;;
52396;SDS011;38322;53.108;6.308;2023-02-15T20:47:46;65.30;;;41.63;;
52396;SDS011;38322;53.108;6.308;2023-02-15T20:50:15;69.88;;;45.20;;
52396;SDS011;38322;53.108;6.308;2023-02-15T20:52:43;71.50;;;47.22;;
52396;SDS011;38322;53.108;6.308;2023-02-15T20:55:11;80.22;;;44.40;;
52396;SDS011;38322;53.108;6.308;2023-02-15T20:57:39;67.78;;;45.15;;
52396;SDS011;38322;53.108;6.308;2023-02-15T21:00:05;67.50;;;43.15;;
